sensor_id;sensor_type;location;lat;lon;timestamp;P1;durP1;ratioP1;P2;durP2;ratioP2
5357;SDS011;2702;51.014;7.170;2022-08-06T00:01:58;3.20;;;1.43;;
5357;SDS011;2702;51.014;7.170;2022-08-06T00:04:24;3.13;;;1.70;;
5357;SDS011;2702;51.014;7.170;2022-08-06T00:06:50;2.10;;;1.73;;
5357;SDS011;2702;51.014;7.170;2022-08-06T00:09:16;2.80;;;1.63;;
5357;SDS011;2702;51.014;7.170;2022-08-06T00:11:42;1.50;;;1.30;;
5357;SDS011;2702;51.014;7.170;2022-08-06T00:14:08;1.93;;;1.40;;
5357;SDS011;2702;51.014;7.170;2022-08-06T00:16:34;2.60;;;1.47;;
5357;SDS011;2702;51.014;7.170;2022-08-06T00:19:00;2.40;;;1.50;;
5357;SDS011;2702;51.014;7.170;2022-08-06T00:21:26;2.50;;;1.70;;
5357;SDS011;2702;51.014;7.170;2022-08-06T00:23:52;4.90;;;1.57;;
5357;SDS011;2702;51.014;7.170;2022-08-06T00:26:18;2.90;;;1.50;;
5357;SDS011;2702;51.014;7.170;2022-08-06T00:28:44;3.40;;;1.53;;
5357;SDS011;2702;51.014;7.170;2022-08-06T00:31:10;2.40;;;1.70;;
5357;SDS011;2702;51.014;7.170;2022-08-06T00:33:36;2.47;;;1.70;;
5357;SDS011;2702;51.014;7.170;2022-08-06T00:36:02;2.50;;;1.50;;
5357;SDS011;2702;51.014;7.170;2022-08-06T00:38:29;1.50;;;1.40;;
5357;SDS011;2702;51.014;7.170;2022-08-06T00:40:55;1.77;;;1.60;;
5357;SDS011;2702;51.014;7.170;2022-08-06T00:43:21;2.13;;;1.60;;
5357;SDS011;2702;51.014;7.170;2022-08-06T00:45:46;2.40;;;1.30;;
5357;SDS011;2702;51.014;7.170;2022-08-06T00:48:12;4.43;;;1.73;;
5357;SDS011;2702;51.014;7.170;2022-08-06T00:50:39;3.50;;;1.90;;
5357;SDS011;2702;51.014;7.170;2022-08-06T00:53:05;5.13;;;1.70;;
5357;SDS011;2702;51.014;7.170;2022-08-06T00:55:31;1.83;;;1.63;;
5357;SDS011;2702;51.014;7.170;2022-08-06T00:57:57;2.27;;;1.63;;
5357;SDS011;2702;51.014;7.170;2022-08-06T01:00:23;1.77;;;1.60;;
5357;SDS011;2702;51.014;7.170;2022-08-06T01:02:49;2.73;;;1.40;;
5357;SDS011;2702;51.014;7.170;2022-08-06T01:05:15;4.43;;;1.70;;
5357;SDS011;2702;51.014;7.170;2022-08-06T01:07:41;2.70;;;1.63;;
5357;SDS011;2702;51.014;7.170;2022-08-06T01:10:08;1.57;;;1.47;;
5357;SDS011;2702;51.014;7.170;2022-08-06T01:12:34;1.70;;;1.40;;
5357;SDS011;2702;51.014;7.170;2022-08-06T01:14:59;1.53;;;1.30;;
5357;SDS011;2702;51.014;7.170;2022-08-06T01:29:27;3.27;;;1.30;;
5357;SDS011;2702;51.014;7.170;2022-08-06T01:34:45;2.40;;;1.70;;
5357;SDS011;2702;51.014;7.170;2022-08-06T01:37:20;4.40;;;1.97;;
5357;SDS011;2702;51.014;7.170;2022-08-06T01:39:55;2.30;;;1.77;;
5357;SDS011;2702;51.014;7.170;2022-08-06T01:42:29;1.80;;;1.70;;
5357;SDS011;2702;51.014;7.170;2022-08-06T01:44:58;1.90;;;1.80;;
5357;SDS011;2702;51.014;7.170;2022-08-06T01:47:27;2.50;;;1.70;;
5357;SDS011;2702;51.014;7.170;2022-08-06T01:49:58;1.73;;;1.53;;
5357;SDS011;2702;51.014;7.170;2022-08-06T01:52:30;2.07;;;1.50;;
5357;SDS011;2702;51.014;7.170;2022-08-06T01:55:11;2.77;;;1.47;;
5357;SDS011;2702;51.014;7.170;2022-08-06T01:57:43;3.23;;;1.60;;
5357;SDS011;2702;51.014;7.170;2022-08-06T02:00:18;1.70;;;1.60;;
5357;SDS011;2702;51.014;7.170;2022-08-06T02:02:45;1.60;;;1.50;;
5357;SDS011;2702;51.014;7.170;2022-08-06T02:05:13;2.60;;;1.60;;
5357;SDS011;2702;51.014;7.170;2022-08-06T02:07:42;1.50;;;1.40;;
5357;SDS011;2702;51.014;7.170;2022-08-06T02:10:11;2.87;;;1.60;;
5357;SDS011;2702;51.014;7.170;2022-08-06T02:12:39;2.20;;;1.90;;
5357;SDS011;2702;51.014;7.170;2022-08-06T02:15:17;4.63;;;1.80;;
5357;SDS011;2702;51.014;7.170;2022-08-06T02:17:52;2.60;;;1.43;;
5357;SDS011;2702;51.014;7.170;2022-08-06T02:20:40;2.30;;;1.77;;
5357;SDS011;2702;51.014;7.170;2022-08-06T02:23:11;4.43;;;1.70;;
5357;SDS011;2702;51.014;7.170;2022-08-06T02:25:42;3.40;;;2.20;;
5357;SDS011;2702;51.014;7.170;2022-08-06T02:28:11;2.60;;;1.53;;
5357;SDS011;2702;51.014;7.170;2022-08-06T02:30:43;2.10;;;1.90;;
5357;SDS011;2702;51.014;7.170;2022-08-06T02:33:11;2.43;;;2.20;;
5357;SDS011;2702;51.014;7.170;2022-08-06T02:35:46;5.03;;;1.70;;
5357;SDS011;2702;51.014;7.170;2022-08-06T02:38:35;1.87;;;1.73;;
5357;SDS011;2702;51.014;7.170;2022-08-06T02:41:29;2.73;;;2.10;;
5357;SDS011;2702;51.014;7.170;2022-08-06T02:43:55;3.47;;;2.27;;
5357;SDS011;2702;51.014;7.170;2022-08-06T02:46:34;4.57;;;1.83;;
5357;SDS011;2702;51.014;7.170;2022-08-06T02:49:23;2.30;;;2.10;;
5357;SDS011;2702;51.014;7.170;2022-08-06T02:51:56;2.63;;;1.70;;
5357;SDS011;2702;51.014;7.170;2022-08-06T02:54:50;4.70;;;1.60;;
5357;SDS011;2702;51.014;7.170;2022-08-06T02:57:32;4.20;;;2.30;;
5357;SDS011;2702;51.014;7.170;2022-08-06T03:00:05;2.37;;;2.00;;
5357;SDS011;2702;51.014;7.170;2022-08-06T03:02:35;2.30;;;2.10;;
5357;SDS011;2702;51.014;7.170;2022-08-06T03:05:04;2.00;;;1.90;;
5357;SDS011;2702;51.014;7.170;2022-08-06T03:07:32;2.43;;;1.97;;
5357;SDS011;2702;51.014;7.170;2022-08-06T03:10:00;4.23;;;2.50;;
5357;SDS011;2702;51.014;7.170;2022-08-06T03:12:28;4.77;;;2.43;;
5357;SDS011;2702;51.014;7.170;2022-08-06T03:15:03;4.03;;;2.50;;
5357;SDS011;2702;51.014;7.170;2022-08-06T03:17:30;2.20;;;2.10;;
5357;SDS011;2702;51.014;7.170;2022-08-06T03:19:58;3.90;;;2.30;;
5357;SDS011;2702;51.014;7.170;2022-08-06T03:22:27;4.90;;;2.30;;
5357;SDS011;2702;51.014;7.170;2022-08-06T03:24:55;4.00;;;2.17;;
5357;SDS011;2702;51.014;7.170;2022-08-06T03:27:22;2.67;;;2.20;;
5357;SDS011;2702;51.014;7.170;2022-08-06T03:29:50;2.07;;;1.83;;
5357;SDS011;2702;51.014;7.170;2022-08-06T03:32:17;3.37;;;2.33;;
5357;SDS011;2702;51.014;7.170;2022-08-06T03:34:43;4.23;;;2.93;;
5357;SDS011;2702;51.014;7.170;2022-08-06T03:37:11;6.70;;;2.70;;
5357;SDS011;2702;51.014;7.170;2022-08-06T03:39:39;3.50;;;2.50;;
5357;SDS011;2702;51.014;7.170;2022-08-06T03:42:07;2.57;;;2.30;;
5357;SDS011;2702;51.014;7.170;2022-08-06T03:44:33;5.87;;;2.20;;
5357;SDS011;2702;51.014;7.170;2022-08-06T03:47:06;3.20;;;2.50;;
5357;SDS011;2702;51.014;7.170;2022-08-06T03:49:38;3.50;;;2.60;;
5357;SDS011;2702;51.014;7.170;2022-08-06T03:52:11;2.23;;;2.03;;
5357;SDS011;2702;51.014;7.170;2022-08-06T03:54:43;2.50;;;2.30;;
5357;SDS011;2702;51.014;7.170;2022-08-06T03:57:14;2.30;;;2.03;;
5357;SDS011;2702;51.014;7.170;2022-08-06T03:59:45;2.63;;;2.23;;
5357;SDS011;2702;51.014;7.170;2022-08-06T04:02:14;3.10;;;2.70;;
5357;SDS011;2702;51.014;7.170;2022-08-06T04:04:42;3.13;;;2.30;;
5357;SDS011;2702;51.014;7.170;2022-08-06T04:07:10;5.63;;;2.60;;
5357;SDS011;2702;51.014;7.170;2022-08-06T04:09:41;3.60;;;2.70;;
5357;SDS011;2702;51.014;7.170;2022-08-06T04:12:09;4.30;;;2.73;;
5357;SDS011;2702;51.014;7.170;2022-08-06T04:14:35;3.90;;;2.47;;
5357;SDS011;2702;51.014;7.170;2022-08-06T04:17:02;5.60;;;2.67;;
5357;SDS011;2702;51.014;7.170;2022-08-06T04:19:29;4.00;;;2.60;;
5357;SDS011;2702;51.014;7.170;2022-08-06T04:21:56;3.50;;;3.10;;
5357;SDS011;2702;51.014;7.170;2022-08-06T04:24:22;6.57;;;2.97;;
5357;SDS011;2702;51.014;7.170;2022-08-06T04:26:49;5.27;;;3.13;;
5357;SDS011;2702;51.014;7.170;2022-08-06T04:29:19;3.20;;;2.90;;
5357;SDS011;2702;51.014;7.170;2022-08-06T04:31:48;4.73;;;2.50;;
5357;SDS011;2702;51.014;7.170;2022-08-06T04:34:20;5.10;;;2.93;;
5357;SDS011;2702;51.014;7.170;2022-08-06T04:36:49;3.80;;;2.83;;
5357;SDS011;2702;51.014;7.170;2022-08-06T04:39:15;3.20;;;2.93;;
5357;SDS011;2702;51.014;7.170;2022-08-06T04:41:43;3.07;;;2.77;;
5357;SDS011;2702;51.014;7.170;2022-08-06T04:44:09;3.40;;;3.10;;
5357;SDS011;2702;51.014;7.170;2022-08-06T04:46:37;3.03;;;2.83;;
5357;SDS011;2702;51.014;7.170;2022-08-06T04:49:03;3.33;;;2.40;;
5357;SDS011;2702;51.014;7.170;2022-08-06T04:51:29;4.20;;;3.30;;
5357;SDS011;2702;51.014;7.170;2022-08-06T04:53:55;5.07;;;4.57;;
5357;SDS011;2702;51.014;7.170;2022-08-06T04:56:21;5.77;;;2.93;;
5357;SDS011;2702;51.014;7.170;2022-08-06T04:58:47;3.23;;;3.03;;
5357;SDS011;2702;51.014;7.170;2022-08-06T05:01:13;4.00;;;3.13;;
5357;SDS011;2702;51.014;7.170;2022-08-06T05:03:39;3.27;;;3.00;;
5357;SDS011;2702;51.014;7.170;2022-08-06T05:08:39;3.97;;;3.40;;
5357;SDS011;2702;51.014;7.170;2022-08-06T05:11:17;6.30;;;3.20;;
5357;SDS011;2702;51.014;7.170;2022-08-06T05:14:01;5.50;;;3.00;;
5357;SDS011;2702;51.014;7.170;2022-08-06T05:16:34;4.03;;;3.17;;
5357;SDS011;2702;51.014;7.170;2022-08-06T05:19:04;3.80;;;3.30;;
5357;SDS011;2702;51.014;7.170;2022-08-06T05:21:35;3.20;;;2.90;;
5357;SDS011;2702;51.014;7.170;2022-08-06T05:24:03;4.27;;;3.23;;
5357;SDS011;2702;51.014;7.170;2022-08-06T05:26:30;3.40;;;3.10;;
5357;SDS011;2702;51.014;7.170;2022-08-06T05:28:58;3.57;;;3.03;;
5357;SDS011;2702;51.014;7.170;2022-08-06T05:31:30;3.30;;;3.00;;
5357;SDS011;2702;51.014;7.170;2022-08-06T05:34:01;4.63;;;3.00;;
5357;SDS011;2702;51.014;7.170;2022-08-06T05:36:28;4.87;;;3.03;;
5357;SDS011;2702;51.014;7.170;2022-08-06T05:38:55;3.07;;;2.87;;
5357;SDS011;2702;51.014;7.170;2022-08-06T05:41:21;2.90;;;2.70;;
5357;SDS011;2702;51.014;7.170;2022-08-06T05:43:47;3.73;;;3.00;;
5357;SDS011;2702;51.014;7.170;2022-08-06T05:46:15;3.20;;;2.90;;
5357;SDS011;2702;51.014;7.170;2022-08-06T05:48:45;3.27;;;2.97;;
5357;SDS011;2702;51.014;7.170;2022-08-06T05:51:21;3.33;;;3.00;;
5357;SDS011;2702;51.014;7.170;2022-08-06T05:54:10;3.57;;;3.20;;
5357;SDS011;2702;51.014;7.170;2022-08-06T05:56:43;3.30;;;2.73;;
5357;SDS011;2702;51.014;7.170;2022-08-06T05:59:18;3.90;;;2.80;;
5357;SDS011;2702;51.014;7.170;2022-08-06T06:01:55;3.73;;;2.83;;
5357;SDS011;2702;51.014;7.170;2022-08-06T06:04:22;3.57;;;3.17;;
5357;SDS011;2702;51.014;7.170;2022-08-06T06:06:49;4.47;;;2.57;;
5357;SDS011;2702;51.014;7.170;2022-08-06T06:09:17;3.73;;;2.67;;
5357;SDS011;2702;51.014;7.170;2022-08-06T06:11:44;3.00;;;2.70;;
5357;SDS011;2702;51.014;7.170;2022-08-06T06:22:56;6.10;;;2.27;;
5357;SDS011;2702;51.014;7.170;2022-08-06T06:25:27;2.67;;;1.90;;
5357;SDS011;2702;51.014;7.170;2022-08-06T06:28:05;2.07;;;1.87;;
5357;SDS011;2702;51.014;7.170;2022-08-06T06:41:32;2.80;;;2.30;;
5357;SDS011;2702;51.014;7.170;2022-08-06T06:44:03;2.83;;;2.10;;
5357;SDS011;2702;51.014;7.170;2022-08-06T06:49:17;2.03;;;1.93;;
5357;SDS011;2702;51.014;7.170;2022-08-06T06:51:50;2.43;;;2.20;;
5357;SDS011;2702;51.014;7.170;2022-08-06T06:54:24;2.67;;;1.90;;
5357;SDS011;2702;51.014;7.170;2022-08-06T06:57:04;1.90;;;1.80;;
5357;SDS011;2702;51.014;7.170;2022-08-06T06:59:36;5.40;;;1.77;;
5357;SDS011;2702;51.014;7.170;2022-08-06T07:02:08;3.80;;;2.00;;
5357;SDS011;2702;51.014;7.170;2022-08-06T07:04:41;3.70;;;1.77;;
5357;SDS011;2702;51.014;7.170;2022-08-06T07:07:09;2.50;;;1.70;;
5357;SDS011;2702;51.014;7.170;2022-08-06T07:09:37;2.27;;;1.60;;
5357;SDS011;2702;51.014;7.170;2022-08-06T07:12:04;2.77;;;1.93;;
5357;SDS011;2702;51.014;7.170;2022-08-06T07:14:31;1.67;;;1.50;;
5357;SDS011;2702;51.014;7.170;2022-08-06T07:17:00;2.60;;;1.40;;
5357;SDS011;2702;51.014;7.170;2022-08-06T07:19:28;1.53;;;1.43;;
5357;SDS011;2702;51.014;7.170;2022-08-06T07:21:55;2.47;;;1.47;;
5357;SDS011;2702;51.014;7.170;2022-08-06T07:24:22;2.30;;;1.77;;
5357;SDS011;2702;51.014;7.170;2022-08-06T07:26:49;1.97;;;1.43;;
5357;SDS011;2702;51.014;7.170;2022-08-06T07:29:17;4.47;;;1.90;;
5357;SDS011;2702;51.014;7.170;2022-08-06T07:31:45;3.73;;;1.93;;
5357;SDS011;2702;51.014;7.170;2022-08-06T07:34:13;1.77;;;1.30;;
5357;SDS011;2702;51.014;7.170;2022-08-06T07:36:42;3.63;;;1.40;;
5357;SDS011;2702;51.014;7.170;2022-08-06T07:39:15;4.33;;;1.87;;
5357;SDS011;2702;51.014;7.170;2022-08-06T07:41:51;1.70;;;1.20;;
5357;SDS011;2702;51.014;7.170;2022-08-06T07:44:20;3.27;;;1.50;;
5357;SDS011;2702;51.014;7.170;2022-08-06T07:46:48;1.40;;;1.30;;
5357;SDS011;2702;51.014;7.170;2022-08-06T07:49:18;1.93;;;1.30;;
5357;SDS011;2702;51.014;7.170;2022-08-06T07:51:47;3.40;;;1.43;;
5357;SDS011;2702;51.014;7.170;2022-08-06T07:54:16;2.67;;;1.80;;
5357;SDS011;2702;51.014;7.170;2022-08-06T07:56:43;3.07;;;1.83;;
5357;SDS011;2702;51.014;7.170;2022-08-06T07:59:10;2.50;;;1.33;;
5357;SDS011;2702;51.014;7.170;2022-08-06T08:01:36;2.60;;;1.30;;
5357;SDS011;2702;51.014;7.170;2022-08-06T08:04:06;2.10;;;1.20;;
5357;SDS011;2702;51.014;7.170;2022-08-06T08:06:53;2.97;;;1.10;;
5357;SDS011;2702;51.014;7.170;2022-08-06T08:09:21;2.80;;;1.10;;
5357;SDS011;2702;51.014;7.170;2022-08-06T08:11:49;3.40;;;1.00;;
5357;SDS011;2702;51.014;7.170;2022-08-06T08:14:17;4.10;;;1.00;;
5357;SDS011;2702;51.014;7.170;2022-08-06T08:16:45;2.83;;;1.33;;
5357;SDS011;2702;51.014;7.170;2022-08-06T08:19:21;2.80;;;0.80;;
5357;SDS011;2702;51.014;7.170;2022-08-06T08:22:16;0.80;;;0.80;;
5357;SDS011;2702;51.014;7.170;2022-08-06T08:24:45;2.83;;;0.97;;
5357;SDS011;2702;51.014;7.170;2022-08-06T08:27:13;2.17;;;0.97;;
5357;SDS011;2702;51.014;7.170;2022-08-06T08:29:40;1.73;;;0.80;;
5357;SDS011;2702;51.014;7.170;2022-08-06T08:32:07;2.83;;;1.10;;
5357;SDS011;2702;51.014;7.170;2022-08-06T08:34:35;2.97;;;1.00;;
5357;SDS011;2702;51.014;7.170;2022-08-06T08:37:01;1.90;;;0.80;;
5357;SDS011;2702;51.014;7.170;2022-08-06T08:39:28;2.90;;;1.30;;
5357;SDS011;2702;51.014;7.170;2022-08-06T08:42:04;1.70;;;0.80;;
5357;SDS011;2702;51.014;7.170;2022-08-06T08:44:35;1.13;;;0.60;;
5357;SDS011;2702;51.014;7.170;2022-08-06T08:47:01;2.20;;;1.03;;
5357;SDS011;2702;51.014;7.170;2022-08-06T08:52:00;3.20;;;0.90;;
5357;SDS011;2702;51.014;7.170;2022-08-06T08:54:28;1.23;;;0.60;;
5357;SDS011;2702;51.014;7.170;2022-08-06T08:56:59;1.60;;;0.97;;
5357;SDS011;2702;51.014;7.170;2022-08-06T08:59:25;2.67;;;1.10;;
5357;SDS011;2702;51.014;7.170;2022-08-06T09:01:51;3.23;;;1.03;;
5357;SDS011;2702;51.014;7.170;2022-08-06T09:04:17;1.20;;;0.80;;
5357;SDS011;2702;51.014;7.170;2022-08-06T09:06:44;2.23;;;0.90;;
5357;SDS011;2702;51.014;7.170;2022-08-06T09:09:10;1.10;;;0.70;;
5357;SDS011;2702;51.014;7.170;2022-08-06T09:11:36;1.60;;;0.60;;
5357;SDS011;2702;51.014;7.170;2022-08-06T09:14:03;2.63;;;0.80;;
5357;SDS011;2702;51.014;7.170;2022-08-06T09:16:31;1.73;;;0.90;;
5357;SDS011;2702;51.014;7.170;2022-08-06T09:18:58;1.90;;;0.80;;
5357;SDS011;2702;51.014;7.170;2022-08-06T09:21:26;4.00;;;0.70;;
5357;SDS011;2702;51.014;7.170;2022-08-06T09:23:52;1.90;;;0.60;;
5357;SDS011;2702;51.014;7.170;2022-08-06T09:26:19;1.80;;;0.67;;
5357;SDS011;2702;51.014;7.170;2022-08-06T09:28:45;0.70;;;0.50;;
5357;SDS011;2702;51.014;7.170;2022-08-06T09:31:18;1.80;;;0.80;;
5357;SDS011;2702;51.014;7.170;2022-08-06T09:34:02;0.83;;;0.50;;
5357;SDS011;2702;51.014;7.170;2022-08-06T09:36:41;1.00;;;0.60;;
5357;SDS011;2702;51.014;7.170;2022-08-06T09:39:08;1.03;;;0.63;;
5357;SDS011;2702;51.014;7.170;2022-08-06T09:41:40;2.30;;;0.73;;
5357;SDS011;2702;51.014;7.170;2022-08-06T09:44:14;2.03;;;0.83;;
5357;SDS011;2702;51.014;7.170;2022-08-06T09:46:44;1.00;;;0.60;;
5357;SDS011;2702;51.014;7.170;2022-08-06T09:49:12;1.80;;;0.60;;
5357;SDS011;2702;51.014;7.170;2022-08-06T09:51:40;1.27;;;0.50;;
5357;SDS011;2702;51.014;7.170;2022-08-06T09:54:07;1.13;;;0.70;;
5357;SDS011;2702;51.014;7.170;2022-08-06T09:56:35;0.70;;;0.60;;
5357;SDS011;2702;51.014;7.170;2022-08-06T09:59:03;0.67;;;0.67;;
5357;SDS011;2702;51.014;7.170;2022-08-06T10:01:41;1.17;;;0.57;;
5357;SDS011;2702;51.014;7.170;2022-08-06T10:04:25;2.37;;;0.87;;
5357;SDS011;2702;51.014;7.170;2022-08-06T10:06:55;1.20;;;0.90;;
5357;SDS011;2702;51.014;7.170;2022-08-06T10:09:23;1.90;;;0.67;;
5357;SDS011;2702;51.014;7.170;2022-08-06T10:11:50;1.40;;;0.60;;
5357;SDS011;2702;51.014;7.170;2022-08-06T10:14:34;0.90;;;0.60;;
5357;SDS011;2702;51.014;7.170;2022-08-06T10:19:44;0.60;;;0.50;;
5357;SDS011;2702;51.014;7.170;2022-08-06T10:22:28;0.87;;;0.57;;
5357;SDS011;2702;51.014;7.170;2022-08-06T10:24:55;0.90;;;0.50;;
5357;SDS011;2702;51.014;7.170;2022-08-06T10:27:31;0.93;;;0.83;;
5357;SDS011;2702;51.014;7.170;2022-08-06T10:30:04;1.57;;;1.00;;
5357;SDS011;2702;51.014;7.170;2022-08-06T10:32:41;1.37;;;0.50;;
5357;SDS011;2702;51.014;7.170;2022-08-06T10:35:17;0.90;;;0.50;;
5357;SDS011;2702;51.014;7.170;2022-08-06T10:37:47;1.13;;;0.60;;
5357;SDS011;2702;51.014;7.170;2022-08-06T10:40:18;1.13;;;0.90;;
5357;SDS011;2702;51.014;7.170;2022-08-06T10:42:45;2.10;;;0.63;;
5357;SDS011;2702;51.014;7.170;2022-08-06T10:45:12;1.33;;;0.70;;
5357;SDS011;2702;51.014;7.170;2022-08-06T10:47:39;1.00;;;0.53;;
5357;SDS011;2702;51.014;7.170;2022-08-06T10:50:06;1.33;;;0.60;;
5357;SDS011;2702;51.014;7.170;2022-08-06T10:52:35;1.30;;;0.57;;
5357;SDS011;2702;51.014;7.170;2022-08-06T10:55:03;1.07;;;0.67;;
5357;SDS011;2702;51.014;7.170;2022-08-06T10:57:30;0.80;;;0.60;;
5357;SDS011;2702;51.014;7.170;2022-08-06T10:59:57;1.47;;;0.60;;
5357;SDS011;2702;51.014;7.170;2022-08-06T11:02:39;1.33;;;0.70;;
5357;SDS011;2702;51.014;7.170;2022-08-06T11:05:14;1.37;;;0.70;;
5357;SDS011;2702;51.014;7.170;2022-08-06T11:16:22;1.10;;;0.60;;
5357;SDS011;2702;51.014;7.170;2022-08-06T11:19:02;1.00;;;0.60;;
5357;SDS011;2702;51.014;7.170;2022-08-06T11:24:07;0.90;;;0.70;;
5357;SDS011;2702;51.014;7.170;2022-08-06T11:26:34;1.40;;;1.03;;
5357;SDS011;2702;51.014;7.170;2022-08-06T11:29:05;0.97;;;0.60;;
5357;SDS011;2702;51.014;7.170;2022-08-06T11:31:36;1.13;;;0.50;;
5357;SDS011;2702;51.014;7.170;2022-08-06T11:34:09;1.13;;;0.80;;
5357;SDS011;2702;51.014;7.170;2022-08-06T11:36:55;1.73;;;0.60;;
5357;SDS011;2702;51.014;7.170;2022-08-06T11:39:24;0.90;;;0.60;;
5357;SDS011;2702;51.014;7.170;2022-08-06T11:42:00;2.03;;;0.90;;
5357;SDS011;2702;51.014;7.170;2022-08-06T11:44:28;1.50;;;0.70;;
5357;SDS011;2702;51.014;7.170;2022-08-06T11:47:07;2.70;;;0.80;;
5357;SDS011;2702;51.014;7.170;2022-08-06T11:52:03;1.10;;;0.70;;
5357;SDS011;2702;51.014;7.170;2022-08-06T11:54:31;1.50;;;0.50;;
5357;SDS011;2702;51.014;7.170;2022-08-06T11:59:35;1.20;;;0.83;;
5357;SDS011;2702;51.014;7.170;2022-08-06T12:05:51;1.33;;;0.60;;
5357;SDS011;2702;51.014;7.170;2022-08-06T12:13:48;2.00;;;0.80;;
5357;SDS011;2702;51.014;7.170;2022-08-06T12:16:32;1.83;;;0.67;;
5357;SDS011;2702;51.014;7.170;2022-08-06T12:19:02;1.00;;;0.70;;
5357;SDS011;2702;51.014;7.170;2022-08-06T12:21:29;0.67;;;0.60;;
5357;SDS011;2702;51.014;7.170;2022-08-06T12:23:56;1.70;;;0.73;;
5357;SDS011;2702;51.014;7.170;2022-08-06T12:26:21;1.40;;;0.77;;
5357;SDS011;2702;51.014;7.170;2022-08-06T12:28:48;2.70;;;0.73;;
5357;SDS011;2702;51.014;7.170;2022-08-06T12:31:27;1.50;;;1.03;;
5357;SDS011;2702;51.014;7.170;2022-08-06T12:33:57;1.37;;;0.80;;
5357;SDS011;2702;51.014;7.170;2022-08-06T12:36:27;1.10;;;0.67;;
5357;SDS011;2702;51.014;7.170;2022-08-06T12:38:55;0.60;;;0.50;;
5357;SDS011;2702;51.014;7.170;2022-08-06T12:41:22;1.03;;;0.60;;
5357;SDS011;2702;51.014;7.170;2022-08-06T12:43:56;1.07;;;0.60;;
5357;SDS011;2702;51.014;7.170;2022-08-06T12:46:23;0.63;;;0.63;;
5357;SDS011;2702;51.014;7.170;2022-08-06T12:48:50;1.67;;;0.70;;
5357;SDS011;2702;51.014;7.170;2022-08-06T12:51:16;1.93;;;0.80;;
5357;SDS011;2702;51.014;7.170;2022-08-06T12:56:13;1.43;;;0.90;;
5357;SDS011;2702;51.014;7.170;2022-08-06T12:58:43;1.70;;;1.00;;
5357;SDS011;2702;51.014;7.170;2022-08-06T13:01:11;1.00;;;0.70;;
5357;SDS011;2702;51.014;7.170;2022-08-06T13:03:41;1.00;;;0.90;;
5357;SDS011;2702;51.014;7.170;2022-08-06T13:06:10;1.20;;;0.73;;
5357;SDS011;2702;51.014;7.170;2022-08-06T13:08:38;1.57;;;0.87;;
5357;SDS011;2702;51.014;7.170;2022-08-06T13:11:04;3.43;;;0.93;;
5357;SDS011;2702;51.014;7.170;2022-08-06T13:13:40;1.17;;;0.80;;
5357;SDS011;2702;51.014;7.170;2022-08-06T13:16:11;0.83;;;0.83;;
5357;SDS011;2702;51.014;7.170;2022-08-06T13:18:39;1.40;;;1.00;;
5357;SDS011;2702;51.014;7.170;2022-08-06T13:21:16;0.93;;;0.90;;
5357;SDS011;2702;51.014;7.170;2022-08-06T13:23:50;1.00;;;0.90;;
5357;SDS011;2702;51.014;7.170;2022-08-06T13:26:59;0.87;;;0.87;;
5357;SDS011;2702;51.014;7.170;2022-08-06T13:29:23;2.13;;;0.70;;
5357;SDS011;2702;51.014;7.170;2022-08-06T13:32:01;1.23;;;1.20;;
5357;SDS011;2702;51.014;7.170;2022-08-06T13:34:49;0.80;;;0.80;;
5357;SDS011;2702;51.014;7.170;2022-08-06T13:40:11;2.30;;;0.93;;
5357;SDS011;2702;51.014;7.170;2022-08-06T13:42:47;1.00;;;0.90;;
5357;SDS011;2702;51.014;7.170;2022-08-06T13:45:23;1.17;;;0.80;;
5357;SDS011;2702;51.014;7.170;2022-08-06T13:48:00;1.20;;;0.73;;
5357;SDS011;2702;51.014;7.170;2022-08-06T13:50:31;1.10;;;0.80;;
5357;SDS011;2702;51.014;7.170;2022-08-06T13:52:59;1.47;;;0.90;;
5357;SDS011;2702;51.014;7.170;2022-08-06T13:55:25;0.93;;;0.80;;
5357;SDS011;2702;51.014;7.170;2022-08-06T13:57:52;1.07;;;0.90;;
5357;SDS011;2702;51.014;7.170;2022-08-06T14:00:18;2.63;;;0.90;;
5357;SDS011;2702;51.014;7.170;2022-08-06T14:02:44;1.53;;;0.70;;
5357;SDS011;2702;51.014;7.170;2022-08-06T14:05:10;0.70;;;0.70;;
5357;SDS011;2702;51.014;7.170;2022-08-06T14:07:36;0.70;;;0.70;;
5357;SDS011;2702;51.014;7.170;2022-08-06T14:10:01;1.03;;;0.90;;
5357;SDS011;2702;51.014;7.170;2022-08-06T14:12:28;0.80;;;0.80;;
5357;SDS011;2702;51.014;7.170;2022-08-06T14:14:53;0.80;;;0.80;;
5357;SDS011;2702;51.014;7.170;2022-08-06T14:17:19;0.73;;;0.73;;
5357;SDS011;2702;51.014;7.170;2022-08-06T14:19:45;0.80;;;0.80;;
5357;SDS011;2702;51.014;7.170;2022-08-06T14:22:11;2.07;;;0.90;;
5357;SDS011;2702;51.014;7.170;2022-08-06T14:24:38;1.10;;;1.00;;
5357;SDS011;2702;51.014;7.170;2022-08-06T14:27:04;1.30;;;1.20;;
5357;SDS011;2702;51.014;7.170;2022-08-06T14:29:30;1.60;;;1.17;;
5357;SDS011;2702;51.014;7.170;2022-08-06T14:31:56;1.30;;;0.93;;
5357;SDS011;2702;51.014;7.170;2022-08-06T14:34:22;1.53;;;1.00;;
5357;SDS011;2702;51.014;7.170;2022-08-06T14:36:47;1.63;;;1.10;;
5357;SDS011;2702;51.014;7.170;2022-08-06T14:39:13;1.23;;;1.13;;
5357;SDS011;2702;51.014;7.170;2022-08-06T14:41:40;1.10;;;1.00;;
5357;SDS011;2702;51.014;7.170;2022-08-06T14:44:25;1.20;;;1.07;;
5357;SDS011;2702;51.014;7.170;2022-08-06T14:47:10;1.20;;;1.17;;
5357;SDS011;2702;51.014;7.170;2022-08-06T14:49:35;2.70;;;1.00;;
5357;SDS011;2702;51.014;7.170;2022-08-06T14:52:02;1.17;;;1.07;;
5357;SDS011;2702;51.014;7.170;2022-08-06T14:54:28;1.43;;;0.90;;
5357;SDS011;2702;51.014;7.170;2022-08-06T14:56:55;1.00;;;1.00;;
5357;SDS011;2702;51.014;7.170;2022-08-06T14:59:21;1.37;;;1.20;;
5357;SDS011;2702;51.014;7.170;2022-08-06T15:01:50;1.10;;;1.10;;
5357;SDS011;2702;51.014;7.170;2022-08-06T15:04:17;1.33;;;1.00;;
5357;SDS011;2702;51.014;7.170;2022-08-06T15:06:44;0.90;;;0.77;;
5357;SDS011;2702;51.014;7.170;2022-08-06T15:09:10;1.27;;;1.07;;
5357;SDS011;2702;51.014;7.170;2022-08-06T15:11:37;0.80;;;0.70;;
5357;SDS011;2702;51.014;7.170;2022-08-06T15:14:03;1.07;;;0.80;;
5357;SDS011;2702;51.014;7.170;2022-08-06T15:16:29;0.80;;;0.80;;
5357;SDS011;2702;51.014;7.170;2022-08-06T15:18:55;0.90;;;0.90;;
5357;SDS011;2702;51.014;7.170;2022-08-06T15:21:21;1.10;;;1.00;;
5357;SDS011;2702;51.014;7.170;2022-08-06T15:23:47;1.67;;;0.80;;
5357;SDS011;2702;51.014;7.170;2022-08-06T15:26:14;0.70;;;0.70;;
5357;SDS011;2702;51.014;7.170;2022-08-06T15:28:40;1.20;;;1.00;;
5357;SDS011;2702;51.014;7.170;2022-08-06T15:31:06;0.87;;;0.87;;
5357;SDS011;2702;51.014;7.170;2022-08-06T15:33:32;1.13;;;0.97;;
5357;SDS011;2702;51.014;7.170;2022-08-06T15:35:59;1.53;;;1.17;;
5357;SDS011;2702;51.014;7.170;2022-08-06T15:38:28;0.73;;;0.73;;
5357;SDS011;2702;51.014;7.170;2022-08-06T15:40:54;2.50;;;1.00;;
5357;SDS011;2702;51.014;7.170;2022-08-06T15:43:20;0.73;;;0.73;;
5357;SDS011;2702;51.014;7.170;2022-08-06T15:45:49;0.73;;;0.70;;
5357;SDS011;2702;51.014;7.170;2022-08-06T15:48:17;1.17;;;0.97;;
5357;SDS011;2702;51.014;7.170;2022-08-06T15:50:46;1.37;;;0.73;;
5357;SDS011;2702;51.014;7.170;2022-08-06T15:53:12;1.07;;;0.70;;
5357;SDS011;2702;51.014;7.170;2022-08-06T15:55:38;1.47;;;0.73;;
5357;SDS011;2702;51.014;7.170;2022-08-06T15:58:05;0.73;;;0.63;;
5357;SDS011;2702;51.014;7.170;2022-08-06T16:00:34;1.23;;;0.83;;
5357;SDS011;2702;51.014;7.170;2022-08-06T16:03:05;0.97;;;0.90;;
5357;SDS011;2702;51.014;7.170;2022-08-06T16:05:34;0.80;;;0.80;;
5357;SDS011;2702;51.014;7.170;2022-08-06T16:08:01;2.00;;;1.20;;
5357;SDS011;2702;51.014;7.170;2022-08-06T16:10:28;1.23;;;0.70;;
5357;SDS011;2702;51.014;7.170;2022-08-06T16:12:54;1.77;;;0.77;;
5357;SDS011;2702;51.014;7.170;2022-08-06T16:15:20;0.80;;;0.60;;
5357;SDS011;2702;51.014;7.170;2022-08-06T16:17:46;0.90;;;0.70;;
5357;SDS011;2702;51.014;7.170;2022-08-06T16:20:15;0.80;;;0.70;;
5357;SDS011;2702;51.014;7.170;2022-08-06T16:22:43;1.57;;;0.80;;
5357;SDS011;2702;51.014;7.170;2022-08-06T16:25:10;2.50;;;2.20;;
5357;SDS011;2702;51.014;7.170;2022-08-06T16:27:37;1.47;;;1.20;;
5357;SDS011;2702;51.014;7.170;2022-08-06T16:30:03;1.53;;;0.57;;
5357;SDS011;2702;51.014;7.170;2022-08-06T16:32:29;2.40;;;1.13;;
5357;SDS011;2702;51.014;7.170;2022-08-06T16:34:55;1.83;;;0.80;;
5357;SDS011;2702;51.014;7.170;2022-08-06T16:37:24;0.70;;;0.53;;
5357;SDS011;2702;51.014;7.170;2022-08-06T16:39:54;1.23;;;0.70;;
5357;SDS011;2702;51.014;7.170;2022-08-06T16:42:20;0.60;;;0.60;;
5357;SDS011;2702;51.014;7.170;2022-08-06T16:44:46;1.37;;;1.07;;
5357;SDS011;2702;51.014;7.170;2022-08-06T16:47:12;1.10;;;0.93;;